sensor_id;sensor_type;location;lat;lon;timestamp;P1;durP1;ratioP1;P2;durP2;ratioP2
81834;SDS011;71272;52.166;4.498;2023-08-07T03:53:16;15.43;;;2.00;;
81834;SDS011;71272;52.166;4.498;2023-08-07T03:55:42;13.50;;;2.30;;
81834;SDS011;71272;52.166;4.498;2023-08-07T03:58:10;10.80;;;2.20;;
81834;SDS011;71272;52.166;4.498;2023-08-07T15:30:37;5.30;;;2.10;;
81834;SDS011;71272;52.166;4.498;2023-08-07T15:36:24;4.53;;;1.77;;
81834;SDS011;71272;52.166;4.498;2023-08-07T15:38:50;5.22;;;1.80;;
81834;SDS011;71272;52.166;4.498;2023-08-07T15:41:17;3.83;;;1.50;;
81834;SDS011;71272;52.166;4.498;2023-08-07T15:43:46;5.07;;;1.38;;
81834;SDS011;71272;52.166;4.498;2023-08-07T15:46:15;3.80;;;1.33;;
81834;SDS011;71272;52.166;4.498;2023-08-07T15:52:03;4.35;;;1.30;;
81834;SDS011;71272;52.166;4.498;2023-08-07T15:54:38;4.38;;;1.65;;
81834;SDS011;71272;52.166;4.498;2023-08-07T15:57:08;4.13;;;1.52;;
81834;SDS011;71272;52.166;4.498;2023-08-07T16:03:06;5.55;;;1.40;;
81834;SDS011;71272;52.166;4.498;2023-08-07T16:09:16;4.93;;;1.58;;
81834;SDS011;71272;52.166;4.498;2023-08-07T16:15:07;2.95;;;0.90;;
81834;SDS011;71272;52.166;4.498;2023-08-07T16:17:33;3.08;;;1.33;;
81834;SDS011;71272;52.166;4.498;2023-08-07T16:23:20;3.15;;;1.20;;
81834;SDS011;71272;52.166;4.498;2023-08-07T16:25:49;3.20;;;1.50;;
81834;SDS011;71272;52.166;4.498;2023-08-07T16:28:14;3.72;;;1.80;;
81834;SDS011;71272;52.166;4.498;2023-08-07T16:30:40;3.45;;;1.38;;
81834;SDS011;71272;52.166;4.498;2023-08-07T16:33:07;3.63;;;1.45;;
81834;SDS011;71272;52.166;4.498;2023-08-07T16:35:32;3.47;;;1.40;;
81834;SDS011;71272;52.166;4.498;2023-08-07T16:37:58;5.03;;;1.55;;
81834;SDS011;71272;52.166;4.498;2023-08-07T16:40:23;4.55;;;1.30;;
81834;SDS011;71272;52.166;4.498;2023-08-07T16:46:11;4.03;;;1.73;;
81834;SDS011;71272;52.166;4.498;2023-08-07T16:48:36;4.97;;;1.43;;
81834;SDS011;71272;52.166;4.498;2023-08-07T16:54:24;3.72;;;1.45;;
81834;SDS011;71272;52.166;4.498;2023-08-07T16:56:49;4.05;;;1.48;;
81834;SDS011;71272;52.166;4.498;2023-08-07T16:59:15;4.80;;;1.40;;
81834;SDS011;71272;52.166;4.498;2023-08-07T17:01:42;4.63;;;1.42;;
81834;SDS011;71272;52.166;4.498;2023-08-07T17:04:08;4.40;;;1.23;;
81834;SDS011;71272;52.166;4.498;2023-08-07T17:06:33;4.95;;;2.00;;
81834;SDS011;71272;52.166;4.498;2023-08-07T17:08:59;4.20;;;1.47;;
81834;SDS011;71272;52.166;4.498;2023-08-07T17:11:24;4.07;;;1.50;;
81834;SDS011;71272;52.166;4.498;2023-08-07T17:13:53;3.30;;;1.20;;
81834;SDS011;71272;52.166;4.498;2023-08-07T17:19:41;3.08;;;1.42;;
81834;SDS011;71272;52.166;4.498;2023-08-07T17:22:07;5.05;;;1.77;;
81834;SDS011;71272;52.166;4.498;2023-08-07T17:24:32;2.78;;;1.23;;
81834;SDS011;71272;52.166;4.498;2023-08-07T17:26:58;6.20;;;1.33;;
81834;SDS011;71272;52.166;4.498;2023-08-07T17:29:23;5.75;;;1.50;;
81834;SDS011;71272;52.166;4.498;2023-08-07T17:31:50;5.43;;;1.58;;
81834;SDS011;71272;52.166;4.498;2023-08-07T17:34:18;4.63;;;1.67;;
81834;SDS011;71272;52.166;4.498;2023-08-07T17:36:44;7.38;;;1.33;;
81834;SDS011;71272;52.166;4.498;2023-08-07T17:39:09;3.97;;;1.52;;
81834;SDS011;71272;52.166;4.498;2023-08-07T17:44:01;5.33;;;1.70;;
81834;SDS011;71272;52.166;4.498;2023-08-07T17:46:34;4.30;;;1.33;;
81834;SDS011;71272;52.166;4.498;2023-08-07T17:49:02;3.00;;;1.38;;
81834;SDS011;71272;52.166;4.498;2023-08-07T17:51:28;3.60;;;1.52;;
81834;SDS011;71272;52.166;4.498;2023-08-07T17:56:19;6.53;;;1.63;;
81834;SDS011;71272;52.166;4.498;2023-08-07T17:58:46;3.33;;;1.35;;
81834;SDS011;71272;52.166;4.498;2023-08-07T18:01:16;4.22;;;1.70;;
81834;SDS011;71272;52.166;4.498;2023-08-07T18:03:42;4.65;;;1.52;;
81834;SDS011;71272;52.166;4.498;2023-08-07T18:06:07;6.75;;;1.42;;
81834;SDS011;71272;52.166;4.498;2023-08-07T18:08:33;2.97;;;1.50;;
81834;SDS011;71272;52.166;4.498;2023-08-07T18:10:58;4.38;;;1.80;;
81834;SDS011;71272;52.166;4.498;2023-08-07T18:13:24;4.20;;;1.45;;
81834;SDS011;71272;52.166;4.498;2023-08-07T18:15:49;5.57;;;1.60;;
81834;SDS011;71272;52.166;4.498;2023-08-07T18:18:15;3.60;;;1.40;;
81834;SDS011;71272;52.166;4.498;2023-08-07T18:20:40;3.78;;;1.80;;
81834;SDS011;71272;52.166;4.498;2023-08-07T18:23:06;3.08;;;1.60;;
81834;SDS011;71272;52.166;4.498;2023-08-07T18:25:31;3.30;;;1.80;;
81834;SDS011;71272;52.166;4.498;2023-08-07T18:27:57;3.83;;;1.50;;
81834;SDS011;71272;52.166;4.498;2023-08-07T18:40:02;7.00;;;1.60;;
81834;SDS011;71272;52.166;4.498;2023-08-07T18:45:51;4.53;;;1.70;;
81834;SDS011;71272;52.166;4.498;2023-08-07T18:48:19;4.10;;;1.40;;
81834;SDS011;71272;52.166;4.498;2023-08-07T18:50:44;5.05;;;1.63;;
81834;SDS011;71272;52.166;4.498;2023-08-07T18:53:10;5.93;;;1.85;;
81834;SDS011;71272;52.166;4.498;2023-08-07T18:59:00;7.60;;;1.75;;
81834;SDS011;71272;52.166;4.498;2023-08-07T19:01:28;5.82;;;1.77;;
81834;SDS011;71272;52.166;4.498;2023-08-07T19:07:18;6.78;;;2.10;;
81834;SDS011;71272;52.166;4.498;2023-08-07T19:09:44;9.77;;;2.10;;
81834;SDS011;71272;52.166;4.498;2023-08-07T19:12:09;6.05;;;1.92;;
81834;SDS011;71272;52.166;4.498;2023-08-07T19:14:35;6.13;;;1.90;;
81834;SDS011;71272;52.166;4.498;2023-08-07T19:17:00;5.30;;;1.65;;
81834;SDS011;71272;52.166;4.498;2023-08-07T19:19:26;3.70;;;1.55;;
81834;SDS011;71272;52.166;4.498;2023-08-07T19:21:52;4.00;;;1.90;;
81834;SDS011;71272;52.166;4.498;2023-08-07T19:24:17;4.57;;;1.67;;
81834;SDS011;71272;52.166;4.498;2023-08-07T19:26:43;3.00;;;1.60;;
81834;SDS011;71272;52.166;4.498;2023-08-07T19:29:08;5.35;;;2.10;;
81834;SDS011;71272;52.166;4.498;2023-08-07T19:31:34;5.25;;;1.77;;
81834;SDS011;71272;52.166;4.498;2023-08-07T19:34:00;5.00;;;1.85;;
81834;SDS011;71272;52.166;4.498;2023-08-07T19:36:25;5.47;;;2.20;;
81834;SDS011;71272;52.166;4.498;2023-08-07T19:38:51;5.20;;;1.75;;
81834;SDS011;71272;52.166;4.498;2023-08-07T19:41:16;5.60;;;1.75;;
81834;SDS011;71272;52.166;4.498;2023-08-07T19:43:42;6.78;;;2.40;;
81834;SDS011;71272;52.166;4.498;2023-08-07T19:46:09;3.92;;;1.50;;
81834;SDS011;71272;52.166;4.498;2023-08-07T19:48:34;7.30;;;4.75;;
81834;SDS011;71272;52.166;4.498;2023-08-07T19:51:09;7.45;;;2.00;;
81834;SDS011;71272;52.166;4.498;2023-08-07T19:53:58;4.55;;;1.80;;
81834;SDS011;71272;52.166;4.498;2023-08-07T19:56:32;5.78;;;1.65;;
81834;SDS011;71272;52.166;4.498;2023-08-07T19:58:58;4.63;;;1.38;;
81834;SDS011;71272;52.166;4.498;2023-08-07T20:04:49;7.95;;;2.15;;
81834;SDS011;71272;52.166;4.498;2023-08-07T20:07:19;10.88;;;2.13;;
81834;SDS011;71272;52.166;4.498;2023-08-07T20:13:14;5.18;;;1.70;;
81834;SDS011;71272;52.166;4.498;2023-08-07T20:15:47;6.45;;;2.08;;
81834;SDS011;71272;52.166;4.498;2023-08-07T20:18:12;8.70;;;1.95;;
81834;SDS011;71272;52.166;4.498;2023-08-07T20:20:45;3.58;;;1.60;;
81834;SDS011;71272;52.166;4.498;2023-08-07T20:23:15;6.57;;;1.90;;
81834;SDS011;71272;52.166;4.498;2023-08-07T20:26:06;5.38;;;1.98;;
81834;SDS011;71272;52.166;4.498;2023-08-07T20:28:37;5.45;;;2.30;;
81834;SDS011;71272;52.166;4.498;2023-08-07T20:31:03;5.45;;;1.75;;
81834;SDS011;71272;52.166;4.498;2023-08-07T20:33:31;5.60;;;2.78;;
81834;SDS011;71272;52.166;4.498;2023-08-07T20:35:58;6.35;;;1.85;;
81834;SDS011;71272;52.166;4.498;2023-08-07T20:38:28;5.95;;;1.98;;
81834;SDS011;71272;52.166;4.498;2023-08-07T20:40:55;7.57;;;1.77;;
81834;SDS011;71272;52.166;4.498;2023-08-07T20:43:22;7.10;;;2.00;;
81834;SDS011;71272;52.166;4.498;2023-08-07T20:45:47;10.93;;;2.33;;
81834;SDS011;71272;52.166;4.498;2023-08-07T20:48:13;9.75;;;1.92;;
81834;SDS011;71272;52.166;4.498;2023-08-07T20:50:41;8.05;;;2.53;;
81834;SDS011;71272;52.166;4.498;2023-08-07T20:53:09;10.25;;;2.88;;
81834;SDS011;71272;52.166;4.498;2023-08-07T20:55:38;6.57;;;2.33;;
81834;SDS011;71272;52.166;4.498;2023-08-07T20:58:08;13.13;;;2.65;;
81834;SDS011;71272;52.166;4.498;2023-08-07T21:00:35;8.98;;;1.92;;
81834;SDS011;71272;52.166;4.498;2023-08-07T21:03:02;5.63;;;2.20;;
81834;SDS011;71272;52.166;4.498;2023-08-07T21:05:28;8.02;;;2.35;;
81834;SDS011;71272;52.166;4.498;2023-08-07T21:07:54;12.43;;;2.33;;
81834;SDS011;71272;52.166;4.498;2023-08-07T21:10:20;10.52;;;2.60;;
81834;SDS011;71272;52.166;4.498;2023-08-07T21:12:45;12.38;;;3.08;;
81834;SDS011;71272;52.166;4.498;2023-08-07T21:15:15;9.23;;;2.10;;
81834;SDS011;71272;52.166;4.498;2023-08-07T21:17:41;12.90;;;3.00;;
81834;SDS011;71272;52.166;4.498;2023-08-07T21:20:06;6.97;;;2.50;;
81834;SDS011;71272;52.166;4.498;2023-08-07T21:22:32;9.75;;;2.67;;
81834;SDS011;71272;52.166;4.498;2023-08-07T21:27:27;10.95;;;2.75;;
81834;SDS011;71272;52.166;4.498;2023-08-07T21:29:53;11.55;;;2.33;;
81834;SDS011;71272;52.166;4.498;2023-08-07T21:32:19;11.70;;;2.72;;
81834;SDS011;71272;52.166;4.498;2023-08-07T21:34:44;8.57;;;3.10;;
81834;SDS011;71272;52.166;4.498;2023-08-07T21:37:14;8.30;;;2.92;;
81834;SDS011;71272;52.166;4.498;2023-08-07T21:39:40;9.90;;;2.28;;
81834;SDS011;71272;52.166;4.498;2023-08-07T21:42:05;9.38;;;2.58;;
81834;SDS011;71272;52.166;4.498;2023-08-07T21:44:34;12.73;;;2.67;;
81834;SDS011;71272;52.166;4.498;2023-08-07T21:46:59;8.33;;;3.13;;
81834;SDS011;71272;52.166;4.498;2023-08-07T21:49:25;11.68;;;2.58;;
81834;SDS011;71272;52.166;4.498;2023-08-07T21:52:01;9.25;;;2.90;;
81834;SDS011;71272;52.166;4.498;2023-08-07T21:54:27;8.48;;;2.70;;
81834;SDS011;71272;52.166;4.498;2023-08-07T21:56:52;10.80;;;2.88;;
81834;SDS011;71272;52.166;4.498;2023-08-07T21:59:18;10.63;;;2.60;;
81834;SDS011;71272;52.166;4.498;2023-08-07T22:01:46;11.18;;;2.83;;
81834;SDS011;71272;52.166;4.498;2023-08-07T22:04:12;11.30;;;3.10;;
81834;SDS011;71272;52.166;4.498;2023-08-07T22:06:37;9.15;;;2.88;;
81834;SDS011;71272;52.166;4.498;2023-08-07T22:09:03;11.48;;;3.03;;
81834;SDS011;71272;52.166;4.498;2023-08-07T22:11:29;11.23;;;3.13;;
81834;SDS011;71272;52.166;4.498;2023-08-07T22:13:55;12.60;;;3.28;;
81834;SDS011;71272;52.166;4.498;2023-08-07T22:18:47;10.17;;;2.90;;
81834;SDS011;71272;52.166;4.498;2023-08-07T22:21:12;9.23;;;3.00;;
81834;SDS011;71272;52.166;4.498;2023-08-07T22:23:39;11.00;;;3.38;;
81834;SDS011;71272;52.166;4.498;2023-08-07T22:26:04;14.02;;;3.72;;
81834;SDS011;71272;52.166;4.498;2023-08-07T22:28:30;10.27;;;3.10;;
81834;SDS011;71272;52.166;4.498;2023-08-07T22:30:55;12.52;;;3.92;;
81834;SDS011;71272;52.166;4.498;2023-08-07T22:33:23;13.45;;;3.05;;
81834;SDS011;71272;52.166;4.498;2023-08-07T22:35:49;13.40;;;2.95;;
81834;SDS011;71272;52.166;4.498;2023-08-07T22:38:14;12.23;;;3.33;;
81834;SDS011;71272;52.166;4.498;2023-08-07T22:40:40;8.13;;;2.95;;
81834;SDS011;71272;52.166;4.498;2023-08-07T22:43:05;13.55;;;3.50;;
81834;SDS011;71272;52.166;4.498;2023-08-07T22:45:31;7.70;;;2.63;;
81834;SDS011;71272;52.166;4.498;2023-08-07T22:47:57;9.25;;;2.97;;
81834;SDS011;71272;52.166;4.498;2023-08-07T22:50:23;9.88;;;3.65;;
81834;SDS011;71272;52.166;4.498;2023-08-07T22:52:48;14.50;;;3.42;;
81834;SDS011;71272;52.166;4.498;2023-08-07T22:55:13;9.00;;;3.45;;
81834;SDS011;71272;52.166;4.498;2023-08-07T22:57:39;10.98;;;3.22;;
81834;SDS011;71272;52.166;4.498;2023-08-07T23:00:04;12.80;;;3.58;;
81834;SDS011;71272;52.166;4.498;2023-08-07T23:02:32;16.38;;;3.42;;
81834;SDS011;71272;52.166;4.498;2023-08-07T23:04:57;12.70;;;3.15;;
81834;SDS011;71272;52.166;4.498;2023-08-07T23:07:23;11.23;;;2.97;;
81834;SDS011;71272;52.166;4.498;2023-08-07T23:09:48;9.88;;;3.08;;
81834;SDS011;71272;52.166;4.498;2023-08-07T23:12:14;13.85;;;2.75;;
81834;SDS011;71272;52.166;4.498;2023-08-07T23:14:39;9.40;;;2.55;;
81834;SDS011;71272;52.166;4.498;2023-08-07T23:17:05;12.30;;;2.63;;
81834;SDS011;71272;52.166;4.498;2023-08-07T23:19:31;10.30;;;3.17;;
81834;SDS011;71272;52.166;4.498;2023-08-07T23:24:22;7.67;;;2.13;;
81834;SDS011;71272;52.166;4.498;2023-08-07T23:26:48;13.52;;;2.88;;
81834;SDS011;71272;52.166;4.498;2023-08-07T23:29:13;9.13;;;2.40;;
81834;SDS011;71272;52.166;4.498;2023-08-07T23:31:40;7.38;;;2.22;;
81834;SDS011;71272;52.166;4.498;2023-08-07T23:34:05;5.97;;;1.75;;
81834;SDS011;71272;52.166;4.498;2023-08-07T23:36:31;5.78;;;1.67;;
81834;SDS011;71272;52.166;4.498;2023-08-07T23:38:57;6.38;;;1.80;;
81834;SDS011;71272;52.166;4.498;2023-08-07T23:41:23;6.03;;;2.15;;
81834;SDS011;71272;52.166;4.498;2023-08-07T23:43:50;6.18;;;2.33;;
81834;SDS011;71272;52.166;4.498;2023-08-07T23:46:16;6.75;;;2.00;;
81834;SDS011;71272;52.166;4.498;2023-08-07T23:48:42;5.82;;;2.33;;
81834;SDS011;71272;52.166;4.498;2023-08-07T23:51:08;5.10;;;1.80;;
81834;SDS011;71272;52.166;4.498;2023-08-07T23:53:33;4.85;;;1.83;;
81834;SDS011;71272;52.166;4.498;2023-08-07T23:55:59;8.48;;;1.90;;
81834;SDS011;71272;52.166;4.498;2023-08-07T23:58:28;3.85;;;1.92;;
